Погода Хендекна неделю

Мармара, Турция

05 - 11 сентября
  • 05сентября
    Сегодня
    +16°
    +30°
    Ясно и безоблачно
    ВремяПогодаТемператураВлажностьДавлениеВетер, м/сВероятность осадков
    00:00Ясно и безоблачно+19°C94 %745 мм1.1 м/с2 %
    03:00Ясно и безоблачно+17°C98 %745 мм1.5 м/с2 %
    06:00Ясно и безоблачно+16°C98 %745 мм0.9 м/с2 %
    09:00Ясно и безоблачно+21°C81 %746 мм0.1 м/с2 %
    12:00Ясно и безоблачно+26°C60 %746 мм0.5 м/с2 %
    15:00Ясно и безоблачно+29°C55 %745 мм1.1 м/с3 %
    18:00Ясно и безоблачно+26°C63 %745 мм2.3 м/с2 %
    21:00Ясно и безоблачно+21°C84 %745 мм1.7 м/с2 %
  • 06сентября
    Воскресенье
    +16°
    +30°
    Ясно и безоблачно
    ВремяПогодаТемператураВлажностьДавлениеВетер, м/сВероятность осадков
    00:00Ясно и безоблачно+20°C88 %745 мм0.5 м/с2 %
    03:00Ясно и безоблачно+18°C86 %744 мм0.3 м/с2 %
    06:00Ясно и безоблачно+16°C88 %745 мм0.3 м/с2 %
    09:00Ясно и безоблачно+22°C72 %746 мм0.3 м/с2 %
    12:00Ясно и безоблачно+27°C58 %746 мм1.6 м/с2 %
    15:00Ясно и безоблачно+29°C53 %746 мм2.1 м/с2 %
    18:00Ясно и безоблачно+27°C55 %746 мм0.9 м/с2 %
    21:00Ясно и безоблачно+22°C77 %747 мм0.2 м/с2 %
  • 07сентября
    Понедельник
    +12°
    +27°
    Ясно и безоблачно
    ВремяПогодаТемператураВлажностьДавлениеВетер, м/сВероятность осадков
    00:00Ясно и безоблачно+20°C80 %748 мм1.1 м/с10 %
    03:00Ясно и безоблачно+18°C74 %748 мм1.2 м/с4 %
    06:00Ясно и безоблачно+17°C77 %749 мм1.4 м/с8 %
    09:00Ясно и безоблачно+21°C65 %750 мм1.1 м/с8 %
    12:00Ясно и безоблачно+25°C51 %750 мм2.3 м/с25 %
    15:00Ясно и безоблачно+26°C50 %750 мм4.2 м/с18 %
    18:00Ясно и безоблачно+24°C59 %749 мм4.3 м/с4 %
    21:00Ясно и безоблачно+19°C74 %750 мм2.2 м/с2 %
  • 08сентября
    Вторник
    +12°
    +25°
    Ясно и безоблачно
    ВремяПогодаТемператураВлажностьДавлениеВетер, м/сВероятность осадков
    00:00Ясно и безоблачно+16°C84 %749 мм1.9 м/с2 %
    03:00Ясно и безоблачно+14°C92 %748 мм1.8 м/с2 %
    06:00Ясно и безоблачно+12°C92 %747 мм1.9 м/с2 %
    09:00Ясно и безоблачно+17°C64 %747 мм1.1 м/с2 %
    12:00Ясно и безоблачно+22°C46 %747 мм1.6 м/с2 %
    15:00Ясно и безоблачно+25°C51 %746 мм3.4 м/с2 %
    18:00Ясно и безоблачно+23°C61 %745 мм4.0 м/с2 %
    21:00Ясно и безоблачно+19°C78 %745 мм2.4 м/с2 %
  • 09сентября
    Среда
    +14°
    +27°
    Ясно и безоблачно
    ВремяПогодаТемператураВлажностьДавлениеВетер, м/сВероятность осадков
    00:00Ясно и безоблачно+16°C92 %744 мм1.9 м/с2 %
    03:00Ясно и безоблачно+14°C97 %743 мм1.5 м/с2 %
    06:00Ясно и безоблачно+13°C94 %743 мм0.5 м/с2 %
    09:00Ясно и безоблачно+18°C74 %743 мм0.7 м/с2 %
    12:00Ясно и безоблачно+22°C61 %743 мм1.8 м/с2 %
    15:00Ясно и безоблачно+27°C50 %742 мм1.3 м/с2 %
    18:00Ясно и безоблачно+24°C58 %742 мм2.8 м/с2 %
    21:00Ясно и безоблачно+20°C86 %742 мм1.9 м/с2 %
  • 10сентября
    Четверг
    +15°
    +28°
    Ясно и безоблачно
    ВремяПогодаТемператураВлажностьДавлениеВетер, м/сВероятность осадков
    03:00Ясно и безоблачно+16°C96 %742 мм0.1 м/с2 %
    09:00Ясно и безоблачно+19°C81 %743 мм0.7 м/с2 %
    15:00Ясно и безоблачно+27°C54 %743 мм2.3 м/с2 %
    21:00Ясно и безоблачно+21°C85 %744 мм0.9 м/с2 %
  • 11сентября
    Пятница
    +16°
    +29°
    Практически безоблачно
    ВремяПогодаТемператураВлажностьДавлениеВетер, м/сВероятность осадков
    03:00Практически безоблачно+17°C92 %744 мм1.1 м/с2 %
    09:00Практически безоблачно+20°C85 %745 мм0.9 м/с2 %
    15:00Практически безоблачно+28°C64 %745 мм2.5 м/с2 %
    21:00Практически безоблачно+22°C88 %746 мм1.3 м/с2 %
Мы используем cookies
Соглашаюсь